Time;durP1;ratioP1;P1;durP2;ratioP2;P2;SDS_P1;SDS_P2;PMS_P1;PMS_P2;Temp;Humidity;BMP_temperature;BMP_pressure;BME280_temperature;BME280_humidity;BME280_pressure;Samples;Min_cycle;Max_cycle;Signal;HPM_P1;HPM_P2
2023/08/16 00:02:05;;;;;;;43.95;41.70;;;;;;;;;;5073605;28;20112;-65
2023/08/16 00:04:31;;;;;;;45.47;43.15;;;;;;;;;;5077740;28;20024;-65
2023/08/16 00:06:57;;;;;;;41.15;38.88;;;;;;;;;;5076256;28;20032;-66
2023/08/16 00:09:22;;;;;;;43.40;41.13;;;;;;;;;;5079986;28;20089;-65
2023/08/16 00:11:47;;;;;;;36.28;34.42;;;;;;;;;;5074819;28;20032;-65
2023/08/16 00:14:13;;;;;;;33.00;31.23;;;;;;;;;;5074053;28;20111;-65
2023/08/16 00:16:39;;;;;;;29.38;27.77;;;;;;;;;;5075455;28;20029;-65
2023/08/16 00:19:04;;;;;;;35.83;33.95;;;;;;;;;;5071795;28;20036;-66
2023/08/16 00:21:30;;;;;;;33.92;32.13;;;;;;;;;;5077139;28;20365;-65
2023/08/16 00:23:55;;;;;;;31.60;29.92;;;;;;;;;;5075687;28;20461;-65
2023/08/16 00:26:20;;;;;;;36.13;32.83;;;;;;;;;;5077304;28;20328;-66
2023/08/16 00:28:47;;;;;;;33.58;31.80;;;;;;;;;;5076908;28;20121;-66
2023/08/16 00:31:13;;;;;;;34.53;32.67;;;;;;;;;;5075850;28;20127;-66
2023/08/16 00:33:38;;;;;;;38.38;36.33;;;;;;;;;;5075805;28;20139;-66
2023/08/16 00:36:04;;;;;;;39.72;37.65;;;;;;;;;;5075558;28;20032;-66
2023/08/16 00:38:30;;;;;;;38.22;36.20;;;;;;;;;;5074462;28;20066;-65
2023/08/16 00:40:57;;;;;;;39.38;37.35;;;;;;;;;;5074236;28;20382;-66
2023/08/16 00:43:22;;;;;;;36.15;34.30;;;;;;;;;;5072698;28;20075;-65
2023/08/16 00:45:49;;;;;;;35.90;34.05;;;;;;;;;;5072872;28;20060;-66
2023/08/16 00:48:14;;;;;;;31.02;29.40;;;;;;;;;;5072987;28;20169;-65
2023/08/16 00:50:40;;;;;;;32.57;30.80;;;;;;;;;;5074089;28;20036;-65
2023/08/16 00:53:06;;;;;;;35.13;33.33;;;;;;;;;;5071203;28;20066;-67
2023/08/16 00:55:33;;;;;;;32.55;30.77;;;;;;;;;;5077220;28;20075;-64
2023/08/16 00:57:59;;;;;;;34.38;32.53;;;;;;;;;;5073992;28;20028;-64
2023/08/16 01:00:24;;;;;;;32.95;31.23;;;;;;;;;;5074680;28;20093;-65
2023/08/16 01:02:50;;;;;;;33.63;31.88;;;;;;;;;;5077899;28;20024;-65
2023/08/16 01:05:16;;;;;;;37.88;35.92;;;;;;;;;;5078001;28;20029;-65
2023/08/16 01:07:41;;;;;;;38.78;36.78;;;;;;;;;;5076488;28;20064;-65
2023/08/16 01:10:08;;;;;;;37.17;35.22;;;;;;;;;;5079096;28;20492;-64
2023/08/16 01:12:47;;;;;;;36.22;34.35;;;;;;;;;;5078211;28;20483;-64
2023/08/16 01:15:15;;;;;;;34.65;32.83;;;;;;;;;;5078424;28;20035;-64
2023/08/16 01:17:42;;;;;;;35.33;33.45;;;;;;;;;;5081349;28;20414;-64
2023/08/16 01:20:09;;;;;;;33.15;31.45;;;;;;;;;;5078196;28;20043;-64
2023/08/16 01:23:04;;;;;;;32.78;31.08;;;;;;;;;;5077929;28;20372;-64
2023/08/16 01:25:46;;;;;;;40.90;38.80;;;;;;;;;;5078371;28;20342;-64
2023/08/16 01:28:12;;;;;;;48.13;45.67;;;;;;;;;;5077324;28;20053;-64
2023/08/16 01:30:41;;;;;;;52.97;50.33;;;;;;;;;;5077652;28;20029;-65
2023/08/16 01:33:11;;;;;;;57.45;54.50;;;;;;;;;;5078310;28;20128;-65
2023/08/16 01:35:37;;;;;;;59.83;56.80;;;;;;;;;;5080435;28;20035;-64
2023/08/16 01:38:04;;;;;;;66.97;63.55;;;;;;;;;;5076699;28;20388;-64
2023/08/16 01:40:49;;;;;;;79.05;75.07;;;;;;;;;;5079590;28;20025;-64
2023/08/16 01:43:16;;;;;;;78.32;74.32;;;;;;;;;;5075462;28;20040;-64
2023/08/16 01:45:42;;;;;;;80.80;76.78;;;;;;;;;;5086476;28;20033;-64
2023/08/16 01:48:09;;;;;;;75.70;71.93;;;;;;;;;;5077778;28;20067;-64
2023/08/16 01:50:35;;;;;;;66.55;63.20;;;;;;;;;;5076893;28;20028;-65
2023/08/16 01:53:01;;;;;;;56.17;53.33;;;;;;;;;;5077704;28;20430;-64
2023/08/16 01:55:26;;;;;;;53.17;50.47;;;;;;;;;;5075663;28;20032;-65
2023/08/16 01:57:52;;;;;;;56.55;53.58;;;;;;;;;;5078146;28;20021;-65
2023/08/16 02:00:18;;;;;;;55.88;53.03;;;;;;;;;;5078501;28;20044;-64
2023/08/16 02:02:43;;;;;;;60.53;57.40;;;;;;;;;;5074240;28;20117;-64
2023/08/16 02:05:08;;;;;;;49.70;47.15;;;;;;;;;;5075020;28;20123;-64
2023/08/16 02:07:34;;;;;;;59.80;56.63;;;;;;;;;;5077806;28;20412;-64
2023/08/16 02:09:59;;;;;;;58.83;55.80;;;;;;;;;;5075057;28;20036;-64
2023/08/16 02:12:24;;;;;;;70.65;67.13;;;;;;;;;;5075678;28;20056;-64
2023/08/16 02:14:50;;;;;;;68.38;64.75;;;;;;;;;;5076301;28;20059;-64
2023/08/16 02:17:15;;;;;;;64.82;61.47;;;;;;;;;;5078294;28;20034;-64
2023/08/16 02:19:41;;;;;;;75.82;72.03;;;;;;;;;;5079050;28;20036;-65
2023/08/16 02:22:06;;;;;;;71.85;68.25;;;;;;;;;;5076803;28;20075;-64
2023/08/16 02:24:32;;;;;;;66.75;63.20;;;;;;;;;;5077290;28;20035;-64
2023/08/16 02:26:57;;;;;;;67.72;64.25;;;;;;;;;;5075173;28;20397;-65
2023/08/16 02:29:22;;;;;;;65.88;62.40;;;;;;;;;;5075256;28;20032;-65
2023/08/16 02:31:48;;;;;;;66.82;61.17;;;;;;;;;;5079532;28;20064;-65
2023/08/16 02:34:13;;;;;;;57.97;55.00;;;;;;;;;;5077217;28;20052;-65
2023/08/16 02:36:38;;;;;;;49.53;46.95;;;;;;;;;;5076962;28;20104;-65
2023/08/16 02:39:05;;;;;;;50.72;48.10;;;;;;;;;;5074499;28;20161;-64
2023/08/16 02:41:31;;;;;;;55.25;52.40;;;;;;;;;;5075397;28;20062;-65
2023/08/16 02:43:56;;;;;;;57.40;54.53;;;;;;;;;;5077087;28;20039;-65
2023/08/16 02:46:23;;;;;;;71.93;68.28;;;;;;;;;;5076455;28;20569;-64
2023/08/16 02:48:48;;;;;;;85.38;81.03;;;;;;;;;;5073471;28;20119;-65
2023/08/16 02:51:13;;;;;;;90.70;86.15;;;;;;;;;;5075495;28;20227;-65
2023/08/16 02:53:38;;;;;;;103.10;97.80;;;;;;;;;;5078510;28;20036;-65
2023/08/16 02:56:04;;;;;;;98.57;93.03;;;;;;;;;;5077972;28;20024;-65
2023/08/16 02:58:29;;;;;;;88.10;83.22;;;;;;;;;;5074656;28;20105;-65
2023/08/16 03:00:55;;;;;;;88.85;84.38;;;;;;;;;;5075257;28;20040;-65
2023/08/16 03:03:20;;;;;;;77.80;73.78;;;;;;;;;;5075482;28;20036;-65
2023/08/16 03:05:46;;;;;;;67.32;63.67;;;;;;;;;;5078857;28;20670;-65
2023/08/16 03:08:11;;;;;;;68.68;65.25;;;;;;;;;;5075244;28;20040;-65
2023/08/16 03:10:36;;;;;;;64.07;60.83;;;;;;;;;;5074680;28;20028;-64
2023/08/16 03:13:02;;;;;;;59.60;56.08;;;;;;;;;;5075231;28;20039;-65
2023/08/16 03:15:28;;;;;;;61.15;56.90;;;;;;;;;;5074589;28;20036;-66
2023/08/16 03:17:53;;;;;;;55.17;52.30;;;;;;;;;;5074731;28;20071;-65
2023/08/16 03:20:18;;;;;;;55.85;52.83;;;;;;;;;;5075788;28;20454;-65
2023/08/16 03:22:44;;;;;;;56.65;53.70;;;;;;;;;;5077770;28;20775;-65
2023/08/16 03:25:09;;;;;;;74.03;70.18;;;;;;;;;;5075287;28;20039;-64
2023/08/16 03:27:35;;;;;;;82.00;77.05;;;;;;;;;;5077642;28;20042;-65
2023/08/16 03:30:00;;;;;;;75.60;71.15;;;;;;;;;;5075762;28;20055;-65
2023/08/16 03:32:25;;;;;;;82.13;77.80;;;;;;;;;;5075469;28;20062;-64
2023/08/16 03:34:51;;;;;;;88.72;84.28;;;;;;;;;;5075561;28;20036;-64
2023/08/16 03:37:16;;;;;;;90.25;85.75;;;;;;;;;;5076893;28;20054;-65
2023/08/16 03:39:41;;;;;;;91.88;87.20;;;;;;;;;;5080181;28;20032;-64
2023/08/16 03:42:07;;;;;;;94.53;89.72;;;;;;;;;;5076574;28;20573;-65
2023/08/16 03:44:32;;;;;;;93.85;88.53;;;;;;;;;;5076990;28;20423;-65
2023/08/16 03:46:58;;;;;;;86.78;82.32;;;;;;;;;;5075489;28;20028;-65
2023/08/16 03:49:23;;;;;;;87.47;83.07;;;;;;;;;;5077409;28;20044;-65
2023/08/16 03:51:49;;;;;;;83.68;79.45;;;;;;;;;;5077858;28;20032;-65
2023/08/16 03:54:14;;;;;;;83.50;78.85;;;;;;;;;;5075030;28;20075;-65
2023/08/16 03:56:40;;;;;;;71.45;67.85;;;;;;;;;;5076100;28;20055;-64
2023/08/16 03:59:06;;;;;;;72.13;68.32;;;;;;;;;;5076114;28;20040;-64
2023/08/16 04:01:31;;;;;;;68.75;65.22;;;;;;;;;;5074091;28;20036;-64
2023/08/16 04:03:57;;;;;;;63.05;59.63;;;;;;;;;;5074397;28;20067;-65
2023/08/16 04:06:22;;;;;;;66.47;63.00;;;;;;;;;;5074960;28;20036;-65
2023/08/16 04:08:47;;;;;;;54.95;52.05;;;;;;;;;;5072811;28;20527;-65
2023/08/16 04:11:13;;;;;;;57.72;54.67;;;;;;;;;;5077299;28;20127;-65
2023/08/16 04:13:38;;;;;;;61.67;58.33;;;;;;;;;;5074250;28;20035;-65
2023/08/16 04:16:03;;;;;;;61.50;58.17;;;;;;;;;;5078457;28;20040;-66
2023/08/16 04:18:29;;;;;;;59.88;56.45;;;;;;;;;;5074882;28;20119;-66
2023/08/16 04:20:55;;;;;;;57.47;54.40;;;;;;;;;;5073653;28;20028;-65
2023/08/16 04:23:21;;;;;;;54.88;51.47;;;;;;;;;;5074290;28;20103;-65
2023/08/16 04:25:47;;;;;;;50.10;46.95;;;;;;;;;;5073983;28;20043;-66
2023/08/16 04:28:12;;;;;;;46.47;43.97;;;;;;;;;;5075418;28;20533;-67
2023/08/16 04:30:37;;;;;;;46.20;43.70;;;;;;;;;;5074137;28;20071;-65
2023/08/16 04:33:03;;;;;;;41.53;38.92;;;;;;;;;;5075546;28;20036;-67
2023/08/16 04:35:28;;;;;;;42.47;39.75;;;;;;;;;;5078502;28;20040;-65
2023/08/16 04:37:54;;;;;;;42.65;40.15;;;;;;;;;;5075036;28;20032;-66
2023/08/16 04:40:19;;;;;;;43.80;41.15;;;;;;;;;;5076370;28;20032;-66
2023/08/16 04:42:44;;;;;;;46.00;43.22;;;;;;;;;;5074023;28;20097;-66
2023/08/16 04:45:10;;;;;;;49.67;46.88;;;;;;;;;;5078960;28;20033;-66
2023/08/16 04:47:35;;;;;;;47.78;45.03;;;;;;;;;;5077710;28;20028;-66
2023/08/16 04:50:03;;;;;;;51.50;48.65;;;;;;;;;;5082152;28;20473;-66
2023/08/16 04:52:29;;;;;;;55.80;52.67;;;;;;;;;;5072090;28;20031;-66
2023/08/16 04:54:54;;;;;;;50.22;46.78;;;;;;;;;;5084574;28;20111;-66
2023/08/16 04:57:19;;;;;;;51.08;47.90;;;;;;;;;;5078733;28;20487;-67
2023/08/16 04:59:45;;;;;;;56.85;53.83;;;;;;;;;;5075137;28;20032;-67
2023/08/16 05:02:10;;;;;;;51.22;48.50;;;;;;;;;;5077754;28;20366;-66
2023/08/16 05:04:36;;;;;;;52.75;49.63;;;;;;;;;;5076265;28;20071;-67
2023/08/16 05:07:01;;;;;;;60.25;57.03;;;;;;;;;;5078742;28;20167;-67
2023/08/16 05:09:26;;;;;;;52.15;49.42;;;;;;;;;;5082799;28;20036;-67
2023/08/16 05:11:52;;;;;;;60.17;57.03;;;;;;;;;;5081512;28;20186;-67
2023/08/16 05:14:17;;;;;;;58.47;55.25;;;;;;;;;;5075226;28;20027;-67
2023/08/16 05:16:43;;;;;;;58.13;54.63;;;;;;;;;;5077135;28;20107;-67
2023/08/16 05:19:08;;;;;;;66.40;62.78;;;;;;;;;;5075196;28;20039;-67
2023/08/16 05:21:33;;;;;;;67.95;64.30;;;;;;;;;;5076585;28;20124;-67
2023/08/16 05:23:59;;;;;;;61.65;58.50;;;;;;;;;;5078441;28;20036;-67
2023/08/16 05:26:24;;;;;;;55.70;52.85;;;;;;;;;;5084037;28;20097;-67
2023/08/16 05:28:50;;;;;;;60.50;57.15;;;;;;;;;;5075952;28;20044;-66
2023/08/16 05:31:15;;;;;;;56.95;53.10;;;;;;;;;;5079707;28;20032;-67
2023/08/16 05:33:41;;;;;;;57.08;54.17;;;;;;;;;;5075189;28;20168;-67
2023/08/16 05:36:07;;;;;;;59.20;56.08;;;;;;;;;;5077429;28;20454;-67
2023/08/16 05:38:33;;;;;;;62.92;59.58;;;;;;;;;;5077629;28;20035;-66
2023/08/16 05:41:00;;;;;;;61.38;58.10;;;;;;;;;;5075471;28;20028;-66
2023/08/16 05:43:25;;;;;;;57.55;54.35;;;;;;;;;;5073500;28;20029;-66
2023/08/16 05:45:51;;;;;;;61.78;58.53;;;;;;;;;;5076551;28;20395;-67
2023/08/16 05:48:16;;;;;;;63.42;59.95;;;;;;;;;;5075529;28;20044;-67
2023/08/16 05:50:42;;;;;;;65.93;62.53;;;;;;;;;;5074400;28;20075;-67
2023/08/16 05:53:08;;;;;;;58.00;55.05;;;;;;;;;;5075416;28;20044;-66
2023/08/16 05:55:34;;;;;;;64.43;61.13;;;;;;;;;;5079025;28;20028;-66
2023/08/16 05:57:59;;;;;;;66.25;62.85;;;;;;;;;;5074288;28;20108;-67
2023/08/16 06:00:25;;;;;;;74.97;71.20;;;;;;;;;;5078858;28;20181;-67
2023/08/16 06:02:52;;;;;;;73.38;69.53;;;;;;;;;;5073727;28;20025;-67
2023/08/16 06:05:18;;;;;;;77.07;73.18;;;;;;;;;;5079965;28;20046;-67
2023/08/16 06:07:43;;;;;;;64.78;61.17;;;;;;;;;;5077154;28;20079;-66
2023/08/16 06:10:09;;;;;;;69.82;65.82;;;;;;;;;;5077075;28;20039;-67
2023/08/16 06:12:34;;;;;;;73.65;69.28;;;;;;;;;;5074344;28;20024;-66
2023/08/16 06:14:59;;;;;;;80.38;76.00;;;;;;;;;;5077117;28;20561;-66
2023/08/16 06:17:25;;;;;;;83.78;79.47;;;;;;;;;;5076789;28;20044;-67
2023/08/16 06:19:50;;;;;;;78.35;74.18;;;;;;;;;;5079123;28;20025;-66
2023/08/16 06:22:16;;;;;;;80.18;76.13;;;;;;;;;;5081772;28;20031;-67
2023/08/16 06:24:41;;;;;;;81.20;76.65;;;;;;;;;;5074992;28;20032;-67
2023/08/16 06:27:08;;;;;;;74.63;70.72;;;;;;;;;;5075761;28;20187;-66
2023/08/16 06:29:35;;;;;;;87.25;82.78;;;;;;;;;;5078997;28;20183;-66
2023/08/16 06:32:01;;;;;;;87.50;82.75;;;;;;;;;;5078851;28;20078;-67
2023/08/16 06:34:27;;;;;;;107.53;101.30;;;;;;;;;;5074310;28;20094;-66
2023/08/16 06:36:53;;;;;;;99.30;94.05;;;;;;;;;;5081813;28;20047;-67
2023/08/16 06:39:18;;;;;;;103.25;97.72;;;;;;;;;;5079548;28;20493;-68
2023/08/16 06:41:44;;;;;;;99.55;94.07;;;;;;;;;;5076396;28;20059;-67
2023/08/16 06:44:10;;;;;;;91.13;86.15;;;;;;;;;;5076480;28;20051;-67
2023/08/16 06:46:35;;;;;;;98.32;93.05;;;;;;;;;;5075089;28;20024;-66
2023/08/16 06:49:00;;;;;;;99.13;94.05;;;;;;;;;;5075010;28;20043;-67
2023/08/16 06:51:26;;;;;;;84.43;79.90;;;;;;;;;;5074769;28;20033;-67
2023/08/16 06:53:52;;;;;;;110.40;104.63;;;;;;;;;;5077513;28;20041;-67
2023/08/16 06:56:17;;;;;;;117.43;111.28;;;;;;;;;;5075981;28;20070;-68
2023/08/16 06:58:42;;;;;;;93.20;88.32;;;;;;;;;;5072277;28;20496;-67
2023/08/16 07:01:08;;;;;;;102.65;97.30;;;;;;;;;;5076828;28;20040;-68
2023/08/16 07:03:37;;;;;;;105.80;100.15;;;;;;;;;;5076877;28;20461;-68
2023/08/16 07:06:03;;;;;;;114.68;108.82;;;;;;;;;;5075707;28;20044;-67
2023/08/16 07:08:28;;;;;;;114.60;108.68;;;;;;;;;;5073406;28;20088;-66
2023/08/16 07:10:54;;;;;;;100.35;95.18;;;;;;;;;;5071954;28;20028;-69
2023/08/16 07:13:19;;;;;;;86.32;81.45;;;;;;;;;;5075048;28;20451;-67
2023/08/16 07:15:45;;;;;;;61.05;57.47;;;;;;;;;;5072485;28;20166;-66
2023/08/16 07:18:10;;;;;;;55.40;52.05;;;;;;;;;;5076813;28;20114;-66
2023/08/16 07:20:36;;;;;;;51.53;48.70;;;;;;;;;;5073962;28;20119;-67
2023/08/16 07:23:02;;;;;;;54.38;51.33;;;;;;;;;;5076013;28;20166;-67
2023/08/16 07:25:28;;;;;;;57.15;53.83;;;;;;;;;;5074036;28;20264;-67
2023/08/16 07:27:53;;;;;;;58.60;55.28;;;;;;;;;;5073365;28;20028;-67
2023/08/16 07:30:18;;;;;;;58.80;55.65;;;;;;;;;;5073768;28;20059;-67
2023/08/16 07:32:44;;;;;;;59.28;55.92;;;;;;;;;;5073385;28;20054;-67
2023/08/16 07:35:09;;;;;;;60.03;56.80;;;;;;;;;;5075490;28;20051;-66
2023/08/16 07:37:36;;;;;;;61.25;57.15;;;;;;;;;;5076577;28;20162;-66
2023/08/16 07:40:03;;;;;;;50.83;48.05;;;;;;;;;;5073583;28;20120;-67
2023/08/16 07:42:28;;;;;;;47.50;44.75;;;;;;;;;;5073773;28;20551;-67
2023/08/16 07:44:54;;;;;;;51.78;48.80;;;;;;;;;;5073672;28;20126;-67
2023/08/16 07:47:19;;;;;;;44.92;42.40;;;;;;;;;;5075740;28;20027;-67
2023/08/16 07:49:44;;;;;;;47.97;44.78;;;;;;;;;;5076832;28;20043;-67
2023/08/16 07:52:10;;;;;;;44.30;41.90;;;;;;;;;;5076877;28;20359;-67
2023/08/16 07:54:35;;;;;;;38.85;36.78;;;;;;;;;;5070343;28;20051;-68
2023/08/16 07:57:01;;;;;;;40.05;37.80;;;;;;;;;;5073802;28;20027;-67
2023/08/16 07:59:26;;;;;;;40.05;37.80;;;;;;;;;;5073471;28;20032;-67
2023/08/16 08:01:53;;;;;;;37.38;35.33;;;;;;;;;;5074035;28;20020;-67
2023/08/16 08:04:19;;;;;;;46.50;43.90;;;;;;;;;;5077578;28;20043;-66
2023/08/16 08:06:44;;;;;;;47.15;44.58;;;;;;;;;;5073391;28;20040;-67
2023/08/16 08:09:10;;;;;;;43.83;41.45;;;;;;;;;;5075566;28;20032;-67
2023/08/16 08:11:38;;;;;;;43.33;40.78;;;;;;;;;;5070889;28;20177;-69
2023/08/16 08:14:04;;;;;;;41.97;39.67;;;;;;;;;;5072897;28;20454;-67
2023/08/16 08:16:30;;;;;;;45.50;43.10;;;;;;;;;;5076526;28;20737;-67
2023/08/16 08:18:55;;;;;;;49.60;46.95;;;;;;;;;;5077778;28;20107;-68
2023/08/16 08:21:20;;;;;;;54.05;51.08;;;;;;;;;;5073172;28;20209;-68
2023/08/16 08:23:46;;;;;;;55.65;52.63;;;;;;;;;;5078703;28;20028;-66
2023/08/16 08:26:11;;;;;;;50.83;48.22;;;;;;;;;;5078672;28;20038;-66
2023/08/16 08:28:37;;;;;;;58.25;55.05;;;;;;;;;;5076451;28;20205;-68
2023/08/16 08:31:03;;;;;;;42.80;40.50;;;;;;;;;;5078535;28;20510;-67
2023/08/16 08:33:29;;;;;;;46.53;44.00;;;;;;;;;;5073160;28;20032;-67
2023/08/16 08:35:55;;;;;;;35.13;33.13;;;;;;;;;;5074759;28;20054;-67
2023/08/16 08:38:22;;;;;;;40.20;38.03;;;;;;;;;;5072203;28;20051;-68
2023/08/16 08:40:47;;;;;;;39.25;37.15;;;;;;;;;;5076303;28;20050;-65
2023/08/16 08:43:17;;;;;;;42.50;40.25;;;;;;;;;;5071819;28;20491;-65
2023/08/16 08:45:46;;;;;;;37.40;35.42;;;;;;;;;;5075678;28;20068;-66
2023/08/16 08:48:12;;;;;;;35.88;33.88;;;;;;;;;;5072453;28;20455;-66
2023/08/16 08:50:39;;;;;;;40.80;38.58;;;;;;;;;;5075496;28;20125;-67
2023/08/16 08:53:04;;;;;;;47.92;44.72;;;;;;;;;;5072380;28;20557;-67
2023/08/16 08:55:32;;;;;;;43.75;41.38;;;;;;;;;;5074400;28;20046;-66
2023/08/16 08:58:01;;;;;;;47.17;44.55;;;;;;;;;;5072538;28;20032;-66
2023/08/16 09:00:31;;;;;;;44.70;42.20;;;;;;;;;;5076734;28;20040;-67
2023/08/16 09:02:58;;;;;;;;;;;;;;;;;;5074765;28;20090;-67
2023/08/16 09:05:25;;;;;;;38.03;35.90;;;;;;;;;;5075615;28;19962;-67
2023/08/16 09:07:51;;;;;;;49.45;46.60;;;;;;;;;;5076403;28;20028;-67
2023/08/16 09:10:17;;;;;;;50.58;47.70;;;;;;;;;;5074911;28;20114;-67
2023/08/16 09:12:43;;;;;;;48.30;45.80;;;;;;;;;;5074438;28;20032;-66
2023/08/16 09:15:09;;;;;;;52.70;49.53;;;;;;;;;;5073794;28;20255;-64
2023/08/16 09:17:35;;;;;;;67.32;63.80;;;;;;;;;;5075736;28;20052;-66
2023/08/16 09:20:00;;;;;;;54.08;51.08;;;;;;;;;;5073226;28;20163;-67
2023/08/16 09:22:28;;;;;;;49.08;46.20;;;;;;;;;;5074003;28;20036;-67
2023/08/16 09:24:56;;;;;;;92.28;87.55;;;;;;;;;;5069785;28;20046;-68
2023/08/16 09:27:31;;;;;;;58.40;55.33;;;;;;;;;;5078971;28;20613;-68
2023/08/16 09:29:57;;;;;;;53.30;50.53;;;;;;;;;;5078645;28;20518;-67
2023/08/16 09:32:26;;;;;;;58.85;55.72;;;;;;;;;;5075673;28;20036;-67
2023/08/16 09:34:53;;;;;;;81.32;76.03;;;;;;;;;;5077694;28;20032;-67
2023/08/16 09:37:20;;;;;;;68.60;65.00;;;;;;;;;;5074270;28;20090;-67
2023/08/16 09:39:58;;;;;;;128.55;121.75;;;;;;;;;;5076432;28;20114;-67
2023/08/16 09:42:33;;;;;;;227.02;215.75;;;;;;;;;;5076777;28;20126;-68
2023/08/16 09:44:59;;;;;;;257.65;244.95;;;;;;;;;;5078278;28;20037;-67
2023/08/16 09:47:28;;;;;;;274.23;260.55;;;;;;;;;;5079250;28;20038;-68
2023/08/16 09:49:54;;;;;;;277.67;263.77;;;;;;;;;;5076552;28;20032;-67
2023/08/16 09:52:19;;;;;;;339.08;321.90;;;;;;;;;;5079275;28;20029;-67
2023/08/16 09:54:51;;;;;;;357.75;339.88;;;;;;;;;;5077498;28;20568;-67
2023/08/16 09:57:17;;;;;;;365.10;346.50;;;;;;;;;;5076856;28;20119;-67
2023/08/16 09:59:42;;;;;;;369.83;350.88;;;;;;;;;;5077332;28;20111;-67
2023/08/16 10:02:11;;;;;;;388.65;368.98;;;;;;;;;;5076942;28;20093;-67
2023/08/16 10:04:38;;;;;;;373.58;354.33;;;;;;;;;;5081883;28;20097;-66
2023/08/16 10:07:05;;;;;;;353.60;335.90;;;;;;;;;;5079146;28;20099;-66
2023/08/16 10:09:33;;;;;;;390.42;370.67;;;;;;;;;;5076473;28;20052;-67
2023/08/16 10:12:03;;;;;;;226.88;215.88;;;;;;;;;;5077879;28;20519;-67
2023/08/16 10:14:30;;;;;;;329.73;313.42;;;;;;;;;;5077797;28;20432;-67
2023/08/16 10:17:01;;;;;;;193.65;184.15;;;;;;;;;;5078983;28;20054;-67
2023/08/16 10:19:32;;;;;;;160.40;152.43;;;;;;;;;;5077001;28;20033;-67
2023/08/16 10:21:59;;;;;;;201.63;191.80;;;;;;;;;;5073244;28;20025;-67
2023/08/16 10:24:25;;;;;;;129.77;123.35;;;;;;;;;;5078890;28;20058;-66
2023/08/16 10:26:53;;;;;;;171.23;162.73;;;;;;;;;;5076184;28;20036;-67
2023/08/16 10:29:22;;;;;;;161.85;153.88;;;;;;;;;;5074209;28;20108;-66
2023/08/16 10:31:49;;;;;;;143.33;136.20;;;;;;;;;;5074386;28;20046;-67
2023/08/16 10:34:16;;;;;;;115.88;110.13;;;;;;;;;;5081208;28;20430;-67
2023/08/16 10:36:42;;;;;;;144.75;137.43;;;;;;;;;;5077401;28;20067;-67
2023/08/16 10:39:07;;;;;;;131.40;124.80;;;;;;;;;;5084173;28;20028;-67
2023/08/16 10:41:43;;;;;;;117.55;111.75;;;;;;;;;;5077194;28;20024;-67
2023/08/16 10:44:11;;;;;;;158.65;150.75;;;;;;;;;;5079460;28;20491;-67
2023/08/16 10:46:37;;;;;;;113.85;108.20;;;;;;;;;;5077136;28;20112;-67
2023/08/16 10:49:08;;;;;;;131.73;125.18;;;;;;;;;;5078201;28;20100;-67
2023/08/16 10:51:48;;;;;;;175.90;167.25;;;;;;;;;;5077760;28;20024;-67
2023/08/16 10:54:13;;;;;;;158.30;150.55;;;;;;;;;;5078102;28;20040;-67
2023/08/16 10:56:49;;;;;;;89.05;84.57;;;;;;;;;;5076120;28;20039;-67
2023/08/16 10:59:15;;;;;;;127.65;121.38;;;;;;;;;;5076616;28;20036;-67
2023/08/16 11:01:49;;;;;;;100.38;95.40;;;;;;;;;;5079734;28;20036;-67
2023/08/16 11:04:14;;;;;;;103.18;98.05;;;;;;;;;;5077349;28;20036;-67
2023/08/16 11:06:40;;;;;;;201.52;191.68;;;;;;;;;;5070956;28;20105;-67
2023/08/16 11:09:07;;;;;;;105.35;100.13;;;;;;;;;;5072439;28;20052;-67
2023/08/16 11:11:33;;;;;;;97.38;92.55;;;;;;;;;;5073194;28;20079;-67
2023/08/16 11:13:59;;;;;;;173.43;164.88;;;;;;;;;;5073019;28;20040;-68
2023/08/16 11:16:24;;;;;;;97.57;92.53;;;;;;;;;;5074361;28;20028;-68
2023/08/16 11:18:50;;;;;;;92.65;88.05;;;;;;;;;;5073266;28;20025;-68
2023/08/16 11:21:16;;;;;;;124.53;118.32;;;;;;;;;;5074073;28;20051;-68
2023/08/16 11:23:42;;;;;;;168.32;160.07;;;;;;;;;;5072959;28;20094;-67
2023/08/16 11:26:10;;;;;;;111.28;105.75;;;;;;;;;;5073365;28;20477;-67
2023/08/16 11:28:38;;;;;;;161.82;153.77;;;;;;;;;;5065610;28;20040;-68
2023/08/16 11:31:05;;;;;;;113.70;108.05;;;;;;;;;;5075497;28;20036;-68
2023/08/16 11:33:32;;;;;;;261.40;248.55;;;;;;;;;;5075468;28;20577;-69
2023/08/16 11:35:59;;;;;;;315.27;299.55;;;;;;;;;;5076794;28;20113;-68
2023/08/16 11:38:24;;;;;;;189.32;179.98;;;;;;;;;;5074717;28;20047;-67
2023/08/16 11:40:51;;;;;;;239.00;227.35;;;;;;;;;;5074810;28;20047;-67
2023/08/16 11:43:16;;;;;;;310.65;295.13;;;;;;;;;;5070305;28;20358;-67
2023/08/16 11:45:41;;;;;;;159.75;151.82;;;;;;;;;;5075474;28;20036;-67
2023/08/16 11:48:07;;;;;;;294.63;280.02;;;;;;;;;;5072656;28;20032;-67
2023/08/16 11:50:36;;;;;;;138.25;131.32;;;;;;;;;;5074561;28;20111;-67
2023/08/16 11:53:03;;;;;;;185.15;176.07;;;;;;;;;;5074967;28;20058;-67
2023/08/16 11:55:29;;;;;;;287.90;273.58;;;;;;;;;;5074007;28;20036;-68
2023/08/16 11:58:08;;;;;;;290.25;275.88;;;;;;;;;;5075222;28;20065;-69
2023/08/16 12:00:35;;;;;;;310.17;294.63;;;;;;;;;;5074386;28;20603;-68
2023/08/16 12:03:03;;;;;;;250.75;238.30;;;;;;;;;;5077303;28;20043;-68
2023/08/16 12:05:36;;;;;;;308.95;293.50;;;;;;;;;;5075797;28;20052;-67
2023/08/16 12:08:06;;;;;;;295.80;281.17;;;;;;;;;;5072743;28;20028;-67
2023/08/16 12:10:32;;;;;;;291.50;277.13;;;;;;;;;;5077043;28;20039;-68
2023/08/16 12:12:58;;;;;;;245.90;233.70;;;;;;;;;;5072541;28;20090;-68
2023/08/16 12:15:28;;;;;;;310.25;294.73;;;;;;;;;;5078445;28;20036;-67
2023/08/16 12:17:57;;;;;;;300.85;285.88;;;;;;;;;;5073624;28;20046;-67
2023/08/16 12:20:26;;;;;;;293.42;278.48;;;;;;;;;;5076754;28;20039;-67
2023/08/16 12:22:54;;;;;;;153.48;145.85;;;;;;;;;;5073659;28;20036;-67
2023/08/16 12:25:20;;;;;;;304.80;289.65;;;;;;;;;;5075808;28;20028;-67
2023/08/16 12:27:45;;;;;;;196.48;186.75;;;;;;;;;;5075416;28;20043;-66
2023/08/16 12:30:11;;;;;;;234.27;222.75;;;;;;;;;;5069241;28;20490;-66
2023/08/16 12:32:36;;;;;;;259.00;246.18;;;;;;;;;;5074655;28;20075;-66
2023/08/16 12:35:02;;;;;;;310.25;294.45;;;;;;;;;;5065848;28;20023;-69
2023/08/16 12:37:28;;;;;;;297.42;282.33;;;;;;;;;;5075037;28;20040;-67
2023/08/16 12:39:53;;;;;;;254.05;240.90;;;;;;;;;;5071759;28;20031;-67
2023/08/16 12:42:18;;;;;;;162.00;153.88;;;;;;;;;;5073331;28;20036;-67
2023/08/16 12:44:43;;;;;;;133.48;126.80;;;;;;;;;;5073985;28;20066;-67
2023/08/16 12:47:10;;;;;;;153.93;146.10;;;;;;;;;;5074875;28;20029;-67
2023/08/16 12:49:35;;;;;;;187.95;178.57;;;;;;;;;;5073674;28;20043;-68
2023/08/16 12:52:00;;;;;;;216.80;206.10;;;;;;;;;;5069430;28;20032;-68
2023/08/16 12:54:26;;;;;;;277.98;264.15;;;;;;;;;;5075331;28;20091;-65
2023/08/16 12:56:51;;;;;;;96.70;91.90;;;;;;;;;;5074952;28;20039;-65
2023/08/16 12:59:17;;;;;;;241.50;229.48;;;;;;;;;;5077125;28;20502;-67
2023/08/16 13:01:42;;;;;;;240.40;228.55;;;;;;;;;;5081943;28;20107;-67
2023/08/16 13:04:07;;;;;;;302.73;287.77;;;;;;;;;;5076216;28;20032;-67
2023/08/16 13:06:33;;;;;;;135.20;128.45;;;;;;;;;;5080086;28;20028;-67
2023/08/16 13:08:58;;;;;;;296.25;281.55;;;;;;;;;;5079046;28;20046;-67
2023/08/16 13:11:23;;;;;;;114.03;108.20;;;;;;;;;;5078896;28;20067;-67
2023/08/16 13:13:49;;;;;;;227.88;216.50;;;;;;;;;;5079369;28;20028;-66
2023/08/16 13:16:14;;;;;;;84.03;79.80;;;;;;;;;;5078204;28;20028;-67
2023/08/16 13:18:40;;;;;;;85.10;80.85;;;;;;;;;;5079916;28;20028;-64
2023/08/16 13:24:28;;;;;;;168.00;158.32;;;;;;;;;;5077813;28;20510;-66
2023/08/16 13:26:53;;;;;;;116.90;111.05;;;;;;;;;;5079416;28;20028;-67
2023/08/16 13:29:19;;;;;;;95.40;90.68;;;;;;;;;;5079258;28;20028;-67
2023/08/16 13:31:44;;;;;;;275.73;261.95;;;;;;;;;;5080161;28;20052;-67
2023/08/16 13:34:09;;;;;;;96.32;91.50;;;;;;;;;;5079082;28;20522;-67
2023/08/16 13:36:35;;;;;;;73.07;69.38;;;;;;;;;;5079037;28;20115;-66
2023/08/16 13:39:04;;;;;;;114.53;108.80;;;;;;;;;;5074377;28;20032;-64
2023/08/16 13:41:29;;;;;;;227.77;216.50;;;;;;;;;;5078660;28;20029;-64
2023/08/16 13:43:56;;;;;;;159.32;151.40;;;;;;;;;;5076384;28;20093;-67
2023/08/16 13:46:21;;;;;;;175.02;166.35;;;;;;;;;;5081543;28;20032;-65
2023/08/16 13:48:47;;;;;;;154.65;146.88;;;;;;;;;;5077707;28;20036;-65
2023/08/16 13:51:12;;;;;;;108.70;103.25;;;;;;;;;;5076234;28;20036;-65
2023/08/16 13:53:37;;;;;;;81.93;77.82;;;;;;;;;;5079095;28;20037;-64
2023/08/16 13:56:04;;;;;;;124.68;118.47;;;;;;;;;;5079850;28;20104;-65
2023/08/16 13:58:32;;;;;;;105.85;100.57;;;;;;;;;;5075958;28;20085;-65
2023/08/16 14:00:58;;;;;;;124.32;118.10;;;;;;;;;;5077712;28;20035;-65
2023/08/16 14:03:25;;;;;;;151.20;143.65;;;;;;;;;;5078624;28;20502;-67
2023/08/16 14:05:56;;;;;;;198.65;188.82;;;;;;;;;;5068022;28;20028;-66
2023/08/16 14:08:22;;;;;;;210.88;200.35;;;;;;;;;;5077214;28;20779;-66